createdAt,value
2023-03-27T00:05:20.549Z,94397.00
2023-03-27T00:10:48.715Z,94388.00
2023-03-27T00:16:16.618Z,94396.00
2023-03-27T00:21:45.108Z,94402.00
2023-03-27T00:27:12.846Z,94393.00
2023-03-27T00:32:40.873Z,94388.00
2023-03-27T00:38:09.641Z,94393.00
2023-03-27T00:43:45.439Z,94397.00
2023-03-27T00:49:16.493Z,94394.00
2023-03-27T00:54:46.814Z,94391.00
2023-03-27T01:00:17.120Z,94403.00
2023-03-27T01:05:45.914Z,94402.00
2023-03-27T01:11:39.617Z,94394.00
2023-03-27T01:17:35.254Z,94389.00
2023-03-27T01:23:58.399Z,94384.00
2023-03-27T01:30:09.370Z,94396.00
2023-03-27T01:35:53.067Z,94400.00
2023-03-27T01:41:54.375Z,94402.00
2023-03-27T01:47:54.952Z,94398.00
2023-03-27T01:53:42.331Z,94396.00
2023-03-27T01:59:17.263Z,94408.00
2023-03-27T02:04:52.472Z,94411.00
2023-03-27T02:10:29.499Z,94405.00
2023-03-27T02:16:01.171Z,94412.00
2023-03-27T02:21:31.516Z,94408.00
2023-03-27T02:27:26.093Z,94410.00
2023-03-27T02:33:42.887Z,94415.00
2023-03-27T02:39:16.109Z,94427.00
2023-03-27T02:44:51.637Z,94433.00
2023-03-27T02:50:38.503Z,94435.00
2023-03-27T02:56:15.172Z,94436.00
2023-03-27T03:01:45.620Z,94445.00
2023-03-27T03:07:30.994Z,94454.00
2023-03-27T03:12:59.246Z,94452.00
2023-03-27T03:18:28.047Z,94463.00
2023-03-27T03:24:01.842Z,94465.00
2023-03-27T03:29:35.462Z,94467.00
2023-03-27T03:35:19.619Z,94474.00
2023-03-27T03:40:48.748Z,94475.00
2023-03-27T03:46:18.841Z,94467.00
2023-03-27T03:51:48.460Z,94485.00
2023-03-27T03:57:33.124Z,94502.00
2023-03-27T04:03:10.391Z,94508.00
2023-03-27T04:08:39.438Z,94525.00
2023-03-27T04:14:07.260Z,94534.00
2023-03-27T04:19:41.843Z,94532.00
2023-03-27T04:25:10.002Z,94526.00
2023-03-27T04:30:38.742Z,94527.00
2023-03-27T04:36:42.595Z,94545.00
2023-03-27T04:42:16.571Z,94558.00
2023-03-27T04:47:45.128Z,94567.00
2023-03-27T04:53:13.104Z,94572.00
2023-03-27T04:58:46.984Z,94599.00
2023-03-27T05:04:17.327Z,94620.00
2023-03-27T05:10:04.707Z,94633.00
2023-03-27T05:15:33.702Z,94655.00
2023-03-27T05:21:05.090Z,94676.00
2023-03-27T05:26:33.985Z,94685.00
2023-03-27T05:32:02.953Z,94695.00
2023-03-27T05:37:48.021Z,94729.00
2023-03-27T05:43:23.076Z,94734.00
2023-03-27T05:48:51.361Z,94758.00
2023-03-27T05:54:19.339Z,94784.00
2023-03-27T05:59:55.441Z,94796.00
2023-03-27T06:05:29.332Z,94825.00
2023-03-27T06:10:57.748Z,94842.00
2023-03-27T06:16:34.193Z,94861.00
2023-03-27T06:22:20.572Z,94874.00
2023-03-27T06:27:51.633Z,94891.00
2023-03-27T06:33:20.030Z,94928.00
2023-03-27T06:38:48.607Z,94935.00
2023-03-27T06:44:17.730Z,94960.00
2023-03-27T06:50:09.128Z,94976.00
2023-03-27T06:55:37.265Z,95005.00
2023-03-27T07:01:05.515Z,95016.00
2023-03-27T07:06:50.651Z,95027.00
2023-03-27T07:12:19.061Z,95033.00
2023-03-27T07:18:01.069Z,95051.00
2023-03-27T07:23:29.122Z,95078.00
2023-03-27T07:29:10.867Z,95081.00
2023-03-27T07:34:40.098Z,95105.00
2023-03-27T07:40:13.882Z,95119.00
2023-03-27T07:45:46.178Z,95124.00
2023-03-27T07:51:14.578Z,95140.00
2023-03-27T07:56:43.543Z,95162.00
2023-03-27T08:02:30.719Z,95173.00
2023-03-27T08:07:58.747Z,95191.00
2023-03-27T08:13:46.240Z,95203.00
2023-03-27T08:19:14.260Z,95217.00
2023-03-27T08:24:48.030Z,95225.00
2023-03-27T08:30:26.129Z,95246.00
2023-03-27T08:35:57.379Z,95272.00
2023-03-27T08:41:38.798Z,95282.00
2023-03-27T08:47:37.311Z,95293.00
2023-03-27T08:53:42.078Z,95307.00
2023-03-27T08:59:31.614Z,95325.00
2023-03-27T09:05:08.714Z,95332.00
2023-03-27T09:10:51.205Z,95343.00
2023-03-27T09:16:37.603Z,95348.00
2023-03-27T09:22:31.533Z,95363.00
2023-03-27T09:28:31.206Z,95374.00
2023-03-27T09:34:07.376Z,95386.00
2023-03-27T09:39:39.240Z,95394.00
2023-03-27T09:45:21.842Z,95402.00
2023-03-27T09:50:59.010Z,95407.00
2023-03-27T09:56:44.639Z,95410.00
2023-03-27T10:02:27.292Z,95420.00
2023-03-27T10:07:56.347Z,95420.00
2023-03-27T10:13:52.317Z,95434.00
2023-03-27T10:19:35.579Z,95447.00
2023-03-27T10:25:20.700Z,95453.00
2023-03-27T10:31:05.140Z,95454.00
2023-03-27T10:36:56.385Z,95478.00
2023-03-27T10:42:28.504Z,95480.00
2023-03-27T10:48:01.645Z,95493.00
2023-03-27T10:53:43.993Z,95501.00
2023-03-27T10:59:40.503Z,95499.00
2023-03-27T11:05:28.250Z,95509.00
2023-03-27T11:11:17.365Z,95516.00
2023-03-27T11:16:53.502Z,95528.00
2023-03-27T11:22:44.869Z,95534.00
2023-03-27T11:28:42.942Z,95538.00
2023-03-27T11:34:57.616Z,95535.00
2023-03-27T11:40:42.947Z,95548.00
2023-03-27T11:46:30.326Z,95550.00
2023-03-27T11:52:07.000Z,95556.00
2023-03-27T11:57:57.533Z,95555.00
2023-03-27T12:03:58.616Z,95547.00
2023-03-27T12:10:13.697Z,95558.00
2023-03-27T12:16:22.748Z,95592.00
2023-03-27T12:22:38.023Z,95566.00
2023-03-27T12:28:35.084Z,95581.00
2023-03-27T12:34:51.039Z,95573.00
2023-03-27T12:40:48.562Z,95585.00
2023-03-27T12:46:24.892Z,95588.00
2023-03-27T12:51:54.200Z,95590.00
2023-03-27T12:57:57.827Z,95594.00
2023-03-27T13:04:19.773Z,95599.00
2023-03-27T13:09:58.251Z,95605.00
2023-03-27T13:15:44.753Z,95605.00
2023-03-27T13:21:58.962Z,95615.00
2023-03-27T13:27:57.946Z,95625.00
2023-03-27T13:33:32.304Z,95639.00
2023-03-27T13:39:08.251Z,95641.00
2023-03-27T13:44:48.290Z,95639.00
2023-03-27T13:50:24.924Z,95632.00
2023-03-27T13:56:21.601Z,95629.00
2023-03-27T14:02:46.886Z,95654.00
2023-03-27T14:08:36.965Z,95626.00
2023-03-27T14:14:35.640Z,95653.00
2023-03-27T14:20:31.407Z,95679.00
2023-03-27T14:26:24.642Z,95699.00
2023-03-27T14:32:02.003Z,95698.00
2023-03-27T14:37:37.034Z,95710.00
2023-03-27T14:43:12.997Z,95739.00
2023-03-27T14:48:46.071Z,95745.00
2023-03-27T14:54:31.366Z,95738.00
2023-03-27T15:00:07.028Z,95745.00
2023-03-27T15:06:14.734Z,95687.00
2023-03-27T15:11:56.842Z,95719.00
2023-03-27T15:17:38.713Z,95763.00
2023-03-27T15:23:19.147Z,95763.00
2023-03-27T15:29:09.395Z,95768.00
2023-03-27T15:34:49.717Z,95755.00
2023-03-27T15:40:26.716Z,95760.00
2023-03-27T15:46:23.544Z,95764.00
2023-03-27T15:51:53.891Z,95770.00
2023-03-27T15:57:21.992Z,95776.00
2023-03-27T16:02:52.549Z,95766.00
2023-03-27T16:08:29.167Z,95794.00
2023-03-27T16:13:59.201Z,95827.00
2023-03-27T16:19:27.356Z,95824.00
2023-03-27T16:24:56.178Z,95822.00
2023-03-27T16:30:33.026Z,95827.00
2023-03-27T16:36:01.728Z,95824.00
2023-03-27T16:41:30.250Z,95826.00
2023-03-27T16:46:58.162Z,95823.00
2023-03-27T16:52:27.364Z,95851.00
2023-03-27T16:57:56.380Z,95897.00
2023-03-27T17:03:24.577Z,95875.00
2023-03-27T17:08:55.851Z,95883.00
2023-03-27T17:14:26.548Z,95883.00
2023-03-27T17:19:54.949Z,95880.00
2023-03-27T17:25:29.529Z,95894.00
2023-03-27T17:31:04.488Z,95910.00
2023-03-27T17:36:42.728Z,95908.00
2023-03-27T17:42:15.742Z,95916.00
2023-03-27T17:47:44.004Z,95921.00
2023-03-27T17:53:12.369Z,95950.00
2023-03-27T17:58:44.136Z,95945.00
2023-03-27T18:04:12.271Z,95951.00
2023-03-27T18:09:40.735Z,95952.00
2023-03-27T18:15:10.117Z,95943.00
2023-03-27T18:20:38.818Z,95946.00
2023-03-27T18:26:07.753Z,95948.00
2023-03-27T18:31:36.177Z,95951.00
2023-03-27T18:37:04.420Z,95959.00
2023-03-27T18:42:32.558Z,95955.00
2023-03-27T18:48:01.307Z,95984.00
2023-03-27T18:53:30.213Z,95978.00
2023-03-27T18:58:58.319Z,95976.00
2023-03-27T19:04:26.555Z,95967.00
2023-03-27T19:09:54.733Z,95977.00
2023-03-27T19:15:23.201Z,95978.00
2023-03-27T19:21:13.901Z,95973.00
2023-03-27T19:27:03.838Z,95981.00
2023-03-27T19:32:32.141Z,95992.00
2023-03-27T19:38:03.170Z,96006.00
2023-03-27T19:43:33.233Z,96000.00
2023-03-27T19:49:01.322Z,96003.00
2023-03-27T19:55:01.606Z,96013.00
2023-03-27T20:00:32.284Z,96012.00
2023-03-27T20:06:07.464Z,96004.00
2023-03-27T20:11:36.886Z,96007.00
2023-03-27T20:17:07.973Z,96006.00
2023-03-27T20:22:54.281Z,96011.00
2023-03-27T20:28:22.736Z,96014.00
2023-03-27T20:33:53.219Z,96011.00
2023-03-27T20:39:21.946Z,96011.00
2023-03-27T20:44:55.241Z,96021.00
2023-03-27T20:50:23.920Z,96016.00
2023-03-27T20:56:00.000Z,96021.00
2023-03-27T21:01:28.647Z,96014.00
2023-03-27T21:06:58.458Z,96009.00
2023-03-27T21:12:26.751Z,96005.00
2023-03-27T21:17:55.049Z,96011.00
2023-03-27T21:23:26.191Z,96016.00
2023-03-27T21:28:54.370Z,96028.00
2023-03-27T21:34:22.790Z,96021.00
2023-03-27T21:39:51.313Z,96019.00
2023-03-27T21:45:19.468Z,96027.00
2023-03-27T21:50:47.687Z,96031.00
2023-03-27T21:56:15.791Z,96050.00
2023-03-27T22:01:43.924Z,96054.00
2023-03-27T22:07:12.108Z,96048.00
2023-03-27T22:12:40.375Z,96054.00
2023-03-27T22:18:08.792Z,96069.00
2023-03-27T22:23:36.968Z,96070.00
2023-03-27T22:29:07.838Z,96079.00
2023-03-27T22:34:36.058Z,96075.00
2023-03-27T22:40:04.950Z,96080.00
2023-03-27T22:45:34.643Z,96086.00
2023-03-27T22:51:02.867Z,96086.00
2023-03-27T22:56:31.966Z,96100.00
2023-03-27T23:02:00.164Z,96102.00
2023-03-27T23:07:28.270Z,96118.00
2023-03-27T23:12:56.570Z,96113.00
2023-03-27T23:18:25.366Z,96110.00
2023-03-27T23:23:54.409Z,96115.00
2023-03-27T23:29:22.628Z,96122.00
2023-03-27T23:34:50.800Z,96134.00
2023-03-27T23:40:18.838Z,96139.00
2023-03-27T23:45:47.994Z,96140.00
2023-03-27T23:51:18.079Z,96146.00
2023-03-27T23:56:46.825Z,96145.00
